Pacific Dawn — 2AGH7 — position and weather

sailwx.info

Track history (hours):
 
Tides and Currents Weather Stations Pressure Air Temp Water Temp Dewpoint Dewpoint Depression Visibility Wind Speed Wind Dir Waves Ship Positions

Pacific Dawn

Last reported at 2017-Aug-16 11:00 UTC. Time now 2017-Aug-17 02:07 UTC.
Position S 18°00' E 166°42'.

Length 245 m; draft 8.3 m.

Type: Passenger vessel. MMSI: 235059368.

Wind from 090 at 18 knots

Barometer 1014.9 mb
Air temperature 23.0 ° C
Visibility: greater than 10.8 NM
Dewpoint 16.5 ° C
Water temperature 27.0 ° C

Date/timePositionNaut miles runAvg speedWind from/ knotsBaromVisibWave heightAir tempDewpointWater temp
2017-Aug-16 11:00S 18°00' E 166°42'211 5.0 090 / 181014.910.8 23.016.527.0
2017-Aug-14 17:00S 21°30' E 167°00'5510.4 140 / 151014.910.8 21.016.025.4
2017-Aug-14 11:41S 22°24' E 166°47'417.6
2017-Aug-14 11:27S 22°23' E 166°43'818.0
2017-Aug-14 11:01S 22°22' E 166°34'917.4
2017-Aug-14 10:31S 22°19' E 166°25'3 5.3
2017-Aug-14 10:00S 22°16' E 166°26'0 0.0
2017-Aug-14 09:30S 22°16' E 166°26'0 0.0
2017-Aug-14 09:00S 22°16' E 166°26'0 0.0
2017-Aug-14 08:30S 22°16' E 166°26'0 0.0
2017-Aug-14 07:57S 22°16' E 166°26'0 0.0
2017-Aug-14 07:30S 22°16' E 166°26'0 0.0
2017-Aug-14 07:00S 22°16' E 166°26'0 0.0
2017-Aug-14 06:30S 22°16' E 166°26'0 0.0
2017-Aug-14 06:00S 22°16' E 166°26'0 0.0
2017-Aug-14 05:30S 22°16' E 166°26'0 0.0
2017-Aug-14 05:00S 22°16' E 166°26'0 0.0
2017-Aug-14 04:30S 22°16' E 166°26'0 0.0
2017-Aug-14 04:00S 22°16' E 166°26'2 3.4
2017-Aug-14 03:30S 22°17' E 166°25'815.9
2017-Aug-14 03:00S 22°20' E 166°17'714.0
2017-Aug-14 02:30S 22°25' E 166°11'61618.4
2017-Aug-12 17:00S 25°54' E 155°36'6117.6 310 / 151019.010.8 21.016.024.6
2017-Aug-12 13:29S 26°16' E 154°32'918.1
2017-Aug-12 12:58S 26°20' E 154°22'818.1
2017-Aug-12 12:30S 26°22' E 154°14'917.6
2017-Aug-12 12:00S 26°26' E 154°04'917.5
2017-Aug-12 11:30S 26°28' E 153°55'917.3
2017-Aug-12 11:01S 26°31' E 153°46'918.1
2017-Aug-12 10:31S 26°34' E 153°37'917.7
2017-Aug-12 10:01S 26°38' E 153°27'917.9
2017-Aug-12 09:30S 26°41' E 153°18'713.7
2017-Aug-12 09:00S 26°44' E 153°11'713.9
2017-Aug-12 08:30S 26°50' E 153°09'917.3
2017-Aug-12 08:00S 26°58' E 153°14'816.9
2017-Aug-12 07:30S 27°05' E 153°19'917.3
2017-Aug-12 07:00S 27°14' E 153°20'917.0
2017-Aug-12 06:30S 27°19' E 153°13'611.2
2017-Aug-12 06:00S 27°24' E 153°09'4 7.3
2017-Aug-12 05:30S 27°26' E 153°07'2 4.7
2017-Aug-12 05:00S 27°26' E 153°04'0 0.0
2017-Aug-12 04:16S 27°26' E 153°04'0 0.0
2017-Aug-12 03:55S 27°26' E 153°04'0 0.0
2017-Aug-12 03:25S 27°26' E 153°04'0 0.0
2017-Aug-12 02:58S 27°26' E 153°04'0 0.0
2017-Aug-12 02:22S 27°26' E 153°04'0 0.0
2017-Aug-12 01:52S 27°26' E 153°04'0 0.0
2017-Aug-12 01:28S 27°26' E 153°04'0 0.0
2017-Aug-12 00:58S 27°26' E 153°04'0 0.0
2017-Aug-12 00:22S 27°26' E 153°04'0 0.0
2017-Aug-11 23:58S 27°26' E 153°04'0 0.0
2017-Aug-11 23:28S 27°26' E 153°04'0 0.0
2017-Aug-11 22:58S 27°26' E 153°04'0 0.0
2017-Aug-11 22:25S 27°26' E 153°04'0 0.0
2017-Aug-11 21:58S 27°26' E 153°04'0 1.0
2017-Aug-11 21:31S 27°27' E 153°05'3 6.7
2017-Aug-11 21:01S 27°25' E 153°08'4 7.6
2017-Aug-11 20:30S 27°22' E 153°10'5 9.9
2017-Aug-11 20:01S 27°18' E 153°13'4 8.2
2017-Aug-11 19:30S 27°16' E 153°17'0 0.6
2017-Aug-11 19:01S 27°16' E 153°17'0 0.2
2017-Aug-11 18:30S 27°16' E 153°17'0 0.5
2017-Aug-11 18:01S 27°16' E 153°18'3 5.6
2017-Aug-11 17:30S 27°14' E 153°20'612.3
2017-Aug-11 17:00S 27°08' E 153°21'815.5
2017-Aug-11 16:30S 27°02' E 153°15'816.7
2017-Aug-11 16:00S 26°55' E 153°11'713.2
2017-Aug-11 15:30S 26°48' E 153°11'612.5
2017-Aug-11 15:00S 26°42' E 153°13'917.2
2017-Aug-11 14:30S 26°40' E 153°23'49518.0
2017-Aug-10 11:00S 21°36' E 160°30'44610.1 140 / 251019.510.8 21.012.225.9
2017-Aug-08 15:00S 18°42' E 167°48'229 8.4 090 / 151014.210.8 24.021.026.7
2017-Aug-07 11:46S 22°24' E 166°47'518.3
2017-Aug-07 11:31S 22°23' E 166°42'917.9
2017-Aug-07 11:00S 22°21' E 166°32'815.8
2017-Aug-07 10:31S 22°18' E 166°25'2 3.4
2017-Aug-07 09:59S 22°16' E 166°26'0 0.0
2017-Aug-07 09:29S 22°16' E 166°26'0 0.0
2017-Aug-07 08:59S 22°16' E 166°26'0 0.0
2017-Aug-07 08:26S 22°16' E 166°26'0 0.0
2017-Aug-07 07:59S 22°16' E 166°26'0 0.0
2017-Aug-07 07:29S 22°16' E 166°26'0 0.0
2017-Aug-07 06:59S 22°16' E 166°26'0 0.0
2017-Aug-07 06:26S 22°16' E 166°26'0 0.0
2017-Aug-07 05:59S 22°16' E 166°26'0 0.0
2017-Aug-07 05:29S 22°16' E 166°26'0 0.0
2017-Aug-07 04:59S 22°16' E 166°26'0 0.0
2017-Aug-07 04:29S 22°16' E 166°26'0 0.0
2017-Aug-07 03:59S 22°16' E 166°26'1 1.2
2017-Aug-07 03:30S 22°17' E 166°26'713.7
2017-Aug-07 03:00S 22°19' E 166°19'713.1
2017-Aug-07 02:30S 22°23' E 166°13'20617.9
2017-Aug-06 15:00S 23°30' E 162°42'6020.0 100 / 141016.710.8 21.016.024.5
2017-Aug-06 12:00S 23°54' E 161°42'   070 / 141019.410.8 21.016.024.5
Track history (hours):
 
Tides and Currents Weather Stations Pressure Air Temp Water Temp Dewpoint Dewpoint Depression Visibility Wind Speed Wind Dir Waves Ship Positions

Pacific Dawn

Last reported at 2017-Aug-16 11:00 UTC. Time now 2017-Aug-17 02:07 UTC.
Position S 18°00' E 166°42'.

Length 245 m; draft 8.3 m.

Type: Passenger vessel. MMSI: 235059368.

Wind from 090 at 18 knots

Barometer 1014.9 mb
Air temperature 23.0 ° C
Visibility: greater than 10.8 NM
Dewpoint 16.5 ° C
Water temperature 27.0 ° C

Date/timePositionNaut miles runAvg speedWind from/ knotsBaromVisibWave heightAir tempDewpointWater temp
2017-Aug-16 11:00S 18°00' E 166°42'211 5.0 090 / 181014.910.8 23.016.527.0
2017-Aug-14 17:00S 21°30' E 167°00'5510.4 140 / 151014.910.8 21.016.025.4
2017-Aug-14 11:41S 22°24' E 166°47'417.6
2017-Aug-14 11:27S 22°23' E 166°43'818.0
2017-Aug-14 11:01S 22°22' E 166°34'917.4
2017-Aug-14 10:31S 22°19' E 166°25'3 5.3
2017-Aug-14 10:00S 22°16' E 166°26'0 0.0
2017-Aug-14 09:30S 22°16' E 166°26'0 0.0
2017-Aug-14 09:00S 22°16' E 166°26'0 0.0
2017-Aug-14 08:30S 22°16' E 166°26'0 0.0
2017-Aug-14 07:57S 22°16' E 166°26'0 0.0
2017-Aug-14 07:30S 22°16' E 166°26'0 0.0
2017-Aug-14 07:00S 22°16' E 166°26'0 0.0
2017-Aug-14 06:30S 22°16' E 166°26'0 0.0
2017-Aug-14 06:00S 22°16' E 166°26'0 0.0
2017-Aug-14 05:30S 22°16' E 166°26'0 0.0
2017-Aug-14 05:00S 22°16' E 166°26'0 0.0
2017-Aug-14 04:30S 22°16' E 166°26'0 0.0
2017-Aug-14 04:00S 22°16' E 166°26'2 3.4
2017-Aug-14 03:30S 22°17' E 166°25'815.9
2017-Aug-14 03:00S 22°20' E 166°17'714.0
2017-Aug-14 02:30S 22°25' E 166°11'61618.4
2017-Aug-12 17:00S 25°54' E 155°36'6117.6 310 / 151019.010.8 21.016.024.6
2017-Aug-12 13:29S 26°16' E 154°32'918.1
2017-Aug-12 12:58S 26°20' E 154°22'818.1
2017-Aug-12 12:30S 26°22' E 154°14'917.6
2017-Aug-12 12:00S 26°26' E 154°04'917.5
2017-Aug-12 11:30S 26°28' E 153°55'917.3
2017-Aug-12 11:01S 26°31' E 153°46'918.1
2017-Aug-12 10:31S 26°34' E 153°37'917.7
2017-Aug-12 10:01S 26°38' E 153°27'917.9
2017-Aug-12 09:30S 26°41' E 153°18'713.7
2017-Aug-12 09:00S 26°44' E 153°11'713.9
2017-Aug-12 08:30S 26°50' E 153°09'917.3
2017-Aug-12 08:00S 26°58' E 153°14'816.9
2017-Aug-12 07:30S 27°05' E 153°19'917.3
2017-Aug-12 07:00S 27°14' E 153°20'917.0
2017-Aug-12 06:30S 27°19' E 153°13'611.2
2017-Aug-12 06:00S 27°24' E 153°09'4 7.3
2017-Aug-12 05:30S 27°26' E 153°07'2 4.7
2017-Aug-12 05:00S 27°26' E 153°04'0 0.0
2017-Aug-12 04:16S 27°26' E 153°04'0 0.0
2017-Aug-12 03:55S 27°26' E 153°04'0 0.0
2017-Aug-12 03:25S 27°26' E 153°04'0 0.0
2017-Aug-12 02:58S 27°26' E 153°04'0 0.0
2017-Aug-12 02:22S 27°26' E 153°04'0 0.0
2017-Aug-12 01:52S 27°26' E 153°04'0 0.0
2017-Aug-12 01:28S 27°26' E 153°04'0 0.0
2017-Aug-12 00:58S 27°26' E 153°04'0 0.0
2017-Aug-12 00:22S 27°26' E 153°04'0 0.0
2017-Aug-11 23:58S 27°26' E 153°04'0 0.0
2017-Aug-11 23:28S 27°26' E 153°04'0 0.0
2017-Aug-11 22:58S 27°26' E 153°04'0 0.0
2017-Aug-11 22:25S 27°26' E 153°04'0 0.0
2017-Aug-11 21:58S 27°26' E 153°04'0 1.0
2017-Aug-11 21:31S 27°27' E 153°05'3 6.7
2017-Aug-11 21:01S 27°25' E 153°08'4 7.6
2017-Aug-11 20:30S 27°22' E 153°10'5 9.9
2017-Aug-11 20:01S 27°18' E 153°13'4 8.2
2017-Aug-11 19:30S 27°16' E 153°17'0 0.6
2017-Aug-11 19:01S 27°16' E 153°17'0 0.2
2017-Aug-11 18:30S 27°16' E 153°17'0 0.5
2017-Aug-11 18:01S 27°16' E 153°18'3 5.6
2017-Aug-11 17:30S 27°14' E 153°20'612.3
2017-Aug-11 17:00S 27°08' E 153°21'815.5
2017-Aug-11 16:30S 27°02' E 153°15'816.7
2017-Aug-11 16:00S 26°55' E 153°11'713.2
2017-Aug-11 15:30S 26°48' E 153°11'612.5
2017-Aug-11 15:00S 26°42' E 153°13'917.2
2017-Aug-11 14:30S 26°40' E 153°23'49518.0
2017-Aug-10 11:00S 21°36' E 160°30'44610.1 140 / 251019.510.8 21.012.225.9
2017-Aug-08 15:00S 18°42' E 167°48'229 8.4 090 / 151014.210.8 24.021.026.7
2017-Aug-07 11:46S 22°24' E 166°47'518.3
2017-Aug-07 11:31S 22°23' E 166°42'917.9
2017-Aug-07 11:00S 22°21' E 166°32'815.8
2017-Aug-07 10:31S 22°18' E 166°25'2 3.4
2017-Aug-07 09:59S 22°16' E 166°26'0 0.0
2017-Aug-07 09:29S 22°16' E 166°26'0 0.0
2017-Aug-07 08:59S 22°16' E 166°26'0 0.0
2017-Aug-07 08:26S 22°16' E 166°26'0 0.0
2017-Aug-07 07:59S 22°16' E 166°26'0 0.0
2017-Aug-07 07:29S 22°16' E 166°26'0 0.0
2017-Aug-07 06:59S 22°16' E 166°26'0 0.0
2017-Aug-07 06:26S 22°16' E 166°26'0 0.0
2017-Aug-07 05:59S 22°16' E 166°26'0 0.0
2017-Aug-07 05:29S 22°16' E 166°26'0 0.0
2017-Aug-07 04:59S 22°16' E 166°26'0 0.0
2017-Aug-07 04:29S 22°16' E 166°26'0 0.0
2017-Aug-07 03:59S 22°16' E 166°26'1 1.2
2017-Aug-07 03:30S 22°17' E 166°26'713.7
2017-Aug-07 03:00S 22°19' E 166°19'713.1
2017-Aug-07 02:30S 22°23' E 166°13'20617.9
2017-Aug-06 15:00S 23°30' E 162°42'6020.0 100 / 141016.710.8 21.016.024.5
2017-Aug-06 12:00S 23°54' E 161°42'   070 / 141019.410.8 21.016.024.5

Dump ship's entire track history